TDPD

Melville Hall Airport

Marigot, Dominica
TAF TDPD 211700Z 2118/2218 11011KT 9999 SCT018
Issued Valid From Valid To
Sep-21 @ 17:00 UTC
(11 hours ago)
Sep-21 @ 18:00 UTC
(10 hours ago)
Sep-22 @ 18:00 UTC
(in 14 hours)
to
TAF TDPD 211700Z 2118/2218 11011KT 9999 SCT018
Issued Sep-21 @ 17:00 UTC
(11 hours ago)
Valid From Sep-21 @ 18:00 UTC
(10 hours ago)
Valid To Sep-22 @ 18:00 UTC
(in 14 hours)
-